sensor_id;sensor_type;location;lat;lon;timestamp;P1;durP1;ratioP1;P2;durP2;ratioP2
53267;SDS011;39156;51.176;6.738;2023-06-14T00:00:20;37.23;;;34.93;;
53267;SDS011;39156;51.176;6.738;2023-06-14T00:02:46;36.00;;;33.90;;
53267;SDS011;39156;51.176;6.738;2023-06-14T00:05:11;38.85;;;36.20;;
53267;SDS011;39156;51.176;6.738;2023-06-14T00:07:38;34.25;;;32.05;;
53267;SDS011;39156;51.176;6.738;2023-06-14T00:10:10;34.90;;;32.90;;
53267;SDS011;39156;51.176;6.738;2023-06-14T00:12:37;36.03;;;33.88;;
53267;SDS011;39156;51.176;6.738;2023-06-14T00:15:04;36.70;;;34.30;;
53267;SDS011;39156;51.176;6.738;2023-06-14T00:19:56;34.42;;;32.40;;
53267;SDS011;39156;51.176;6.738;2023-06-14T00:24:49;35.08;;;32.97;;
53267;SDS011;39156;51.176;6.738;2023-06-14T00:27:18;38.08;;;35.35;;
53267;SDS011;39156;51.176;6.738;2023-06-14T00:29:44;36.33;;;34.17;;
53267;SDS011;39156;51.176;6.738;2023-06-14T00:32:10;36.90;;;34.60;;
53267;SDS011;39156;51.176;6.738;2023-06-14T00:34:36;35.17;;;33.17;;
53267;SDS011;39156;51.176;6.738;2023-06-14T00:37:01;36.43;;;34.23;;
53267;SDS011;39156;51.176;6.738;2023-06-14T00:39:27;36.50;;;34.33;;
53267;SDS011;39156;51.176;6.738;2023-06-14T00:41:53;37.10;;;35.00;;
53267;SDS011;39156;51.176;6.738;2023-06-14T00:44:19;37.23;;;35.03;;
53267;SDS011;39156;51.176;6.738;2023-06-14T00:46:45;36.88;;;34.58;;
53267;SDS011;39156;51.176;6.738;2023-06-14T00:49:12;36.15;;;33.85;;
53267;SDS011;39156;51.176;6.738;2023-06-14T00:51:42;36.70;;;34.50;;
53267;SDS011;39156;51.176;6.738;2023-06-14T00:54:08;35.13;;;33.00;;
53267;SDS011;39156;51.176;6.738;2023-06-14T00:56:35;36.45;;;34.45;;
53267;SDS011;39156;51.176;6.738;2023-06-14T00:59:02;36.55;;;34.35;;
53267;SDS011;39156;51.176;6.738;2023-06-14T01:03:57;35.58;;;33.58;;
53267;SDS011;39156;51.176;6.738;2023-06-14T01:12:05;37.53;;;35.20;;
53267;SDS011;39156;51.176;6.738;2023-06-14T01:14:54;36.92;;;34.63;;
53267;SDS011;39156;51.176;6.738;2023-06-14T01:17:22;36.30;;;34.00;;
53267;SDS011;39156;51.176;6.738;2023-06-14T01:19:48;37.30;;;35.10;;
53267;SDS011;39156;51.176;6.738;2023-06-14T01:22:14;38.17;;;35.97;;
53267;SDS011;39156;51.176;6.738;2023-06-14T01:24:39;37.50;;;35.08;;
53267;SDS011;39156;51.176;6.738;2023-06-14T01:27:09;37.97;;;35.65;;
53267;SDS011;39156;51.176;6.738;2023-06-14T01:29:36;37.05;;;34.92;;
53267;SDS011;39156;51.176;6.738;2023-06-14T01:32:02;38.77;;;36.30;;
53267;SDS011;39156;51.176;6.738;2023-06-14T01:34:29;36.75;;;34.70;;
53267;SDS011;39156;51.176;6.738;2023-06-14T01:36:55;35.97;;;33.60;;
53267;SDS011;39156;51.176;6.738;2023-06-14T01:39:21;38.78;;;36.45;;
53267;SDS011;39156;51.176;6.738;2023-06-14T01:41:48;36.15;;;33.97;;
53267;SDS011;39156;51.176;6.738;2023-06-14T01:44:16;37.72;;;35.50;;
53267;SDS011;39156;51.176;6.738;2023-06-14T01:46:43;37.03;;;34.80;;
53267;SDS011;39156;51.176;6.738;2023-06-14T01:49:10;38.45;;;35.80;;
53267;SDS011;39156;51.176;6.738;2023-06-14T01:51:36;38.03;;;35.70;;
53267;SDS011;39156;51.176;6.738;2023-06-14T01:54:02;37.20;;;34.97;;
53267;SDS011;39156;51.176;6.738;2023-06-14T01:56:28;36.17;;;34.17;;
53267;SDS011;39156;51.176;6.738;2023-06-14T01:58:53;37.23;;;34.87;;
53267;SDS011;39156;51.176;6.738;2023-06-14T02:01:19;37.10;;;34.87;;
53267;SDS011;39156;51.176;6.738;2023-06-14T02:06:13;36.75;;;34.63;;
53267;SDS011;39156;51.176;6.738;2023-06-14T02:08:40;38.00;;;35.83;;
53267;SDS011;39156;51.176;6.738;2023-06-14T02:11:07;36.90;;;34.47;;
53267;SDS011;39156;51.176;6.738;2023-06-14T02:13:33;36.80;;;34.55;;
53267;SDS011;39156;51.176;6.738;2023-06-14T02:15:59;36.70;;;34.58;;
53267;SDS011;39156;51.176;6.738;2023-06-14T02:18:25;36.72;;;34.60;;
53267;SDS011;39156;51.176;6.738;2023-06-14T02:20:52;36.80;;;34.58;;
53267;SDS011;39156;51.176;6.738;2023-06-14T02:23:18;37.20;;;34.50;;
53267;SDS011;39156;51.176;6.738;2023-06-14T02:25:43;38.07;;;35.87;;
53267;SDS011;39156;51.176;6.738;2023-06-14T02:28:10;37.90;;;35.72;;
53267;SDS011;39156;51.176;6.738;2023-06-14T02:30:36;38.40;;;36.13;;
53267;SDS011;39156;51.176;6.738;2023-06-14T02:33:02;37.27;;;35.17;;
53267;SDS011;39156;51.176;6.738;2023-06-14T02:37:55;37.10;;;35.00;;
53267;SDS011;39156;51.176;6.738;2023-06-14T02:40:21;39.00;;;36.70;;
53267;SDS011;39156;51.176;6.738;2023-06-14T02:42:47;36.13;;;34.13;;
53267;SDS011;39156;51.176;6.738;2023-06-14T02:45:13;37.60;;;35.40;;
53267;SDS011;39156;51.176;6.738;2023-06-14T02:47:39;37.35;;;35.03;;
53267;SDS011;39156;51.176;6.738;2023-06-14T02:50:05;36.73;;;34.43;;
53267;SDS011;39156;51.176;6.738;2023-06-14T02:52:33;37.80;;;35.60;;
53267;SDS011;39156;51.176;6.738;2023-06-14T02:54:59;36.03;;;33.83;;
53267;SDS011;39156;51.176;6.738;2023-06-14T02:57:24;36.97;;;34.87;;
53267;SDS011;39156;51.176;6.738;2023-06-14T02:59:50;36.77;;;34.40;;
53267;SDS011;39156;51.176;6.738;2023-06-14T03:04:43;37.33;;;35.22;;
53267;SDS011;39156;51.176;6.738;2023-06-14T03:07:09;35.53;;;33.53;;
53267;SDS011;39156;51.176;6.738;2023-06-14T03:09:36;37.63;;;35.33;;
53267;SDS011;39156;51.176;6.738;2023-06-14T03:12:02;38.15;;;35.80;;
53267;SDS011;39156;51.176;6.738;2023-06-14T03:14:29;36.25;;;34.15;;
53267;SDS011;39156;51.176;6.738;2023-06-14T03:16:56;36.08;;;33.92;;
53267;SDS011;39156;51.176;6.738;2023-06-14T03:19:22;38.27;;;36.17;;
53267;SDS011;39156;51.176;6.738;2023-06-14T03:21:48;35.67;;;33.60;;
53267;SDS011;39156;51.176;6.738;2023-06-14T03:24:14;36.90;;;34.63;;
53267;SDS011;39156;51.176;6.738;2023-06-14T03:26:43;36.90;;;34.80;;
53267;SDS011;39156;51.176;6.738;2023-06-14T03:29:08;36.63;;;34.33;;
53267;SDS011;39156;51.176;6.738;2023-06-14T03:31:34;37.90;;;35.50;;
53267;SDS011;39156;51.176;6.738;2023-06-14T03:34:00;37.57;;;35.03;;
53267;SDS011;39156;51.176;6.738;2023-06-14T03:36:26;37.30;;;35.13;;
53267;SDS011;39156;51.176;6.738;2023-06-14T03:38:55;38.38;;;36.08;;
53267;SDS011;39156;51.176;6.738;2023-06-14T03:41:21;35.80;;;33.63;;
53267;SDS011;39156;51.176;6.738;2023-06-14T03:43:47;36.90;;;34.40;;
53267;SDS011;39156;51.176;6.738;2023-06-14T03:46:13;35.63;;;33.50;;
53267;SDS011;39156;51.176;6.738;2023-06-14T03:48:38;35.97;;;33.87;;
53267;SDS011;39156;51.176;6.738;2023-06-14T03:51:05;37.65;;;35.22;;
53267;SDS011;39156;51.176;6.738;2023-06-14T03:53:30;37.70;;;35.50;;
53267;SDS011;39156;51.176;6.738;2023-06-14T03:55:56;35.70;;;33.67;;
53267;SDS011;39156;51.176;6.738;2023-06-14T03:58:22;37.80;;;35.38;;
53267;SDS011;39156;51.176;6.738;2023-06-14T04:00:48;37.07;;;34.87;;
53267;SDS011;39156;51.176;6.738;2023-06-14T04:03:14;35.47;;;33.47;;
53267;SDS011;39156;51.176;6.738;2023-06-14T04:05:40;39.47;;;36.22;;
53267;SDS011;39156;51.176;6.738;2023-06-14T04:08:07;36.83;;;34.25;;
53267;SDS011;39156;51.176;6.738;2023-06-14T04:10:39;38.60;;;36.03;;
53267;SDS011;39156;51.176;6.738;2023-06-14T04:13:05;37.22;;;34.33;;
53267;SDS011;39156;51.176;6.738;2023-06-14T04:15:32;37.10;;;34.60;;
53267;SDS011;39156;51.176;6.738;2023-06-14T04:17:58;36.47;;;34.00;;
53267;SDS011;39156;51.176;6.738;2023-06-14T04:20:24;36.85;;;34.55;;
53267;SDS011;39156;51.176;6.738;2023-06-14T04:22:50;35.45;;;33.05;;
53267;SDS011;39156;51.176;6.738;2023-06-14T04:25:17;34.28;;;32.03;;
53267;SDS011;39156;51.176;6.738;2023-06-14T04:27:43;34.72;;;32.38;;
53267;SDS011;39156;51.176;6.738;2023-06-14T04:30:09;36.08;;;33.92;;
53267;SDS011;39156;51.176;6.738;2023-06-14T04:32:35;34.97;;;32.45;;
53267;SDS011;39156;51.176;6.738;2023-06-14T04:35:07;33.15;;;31.15;;
53267;SDS011;39156;51.176;6.738;2023-06-14T04:37:33;34.78;;;32.38;;
53267;SDS011;39156;51.176;6.738;2023-06-14T04:40:00;34.33;;;31.88;;
53267;SDS011;39156;51.176;6.738;2023-06-14T04:42:26;33.13;;;31.02;;
53267;SDS011;39156;51.176;6.738;2023-06-14T04:44:56;34.58;;;32.22;;
53267;SDS011;39156;51.176;6.738;2023-06-14T04:47:22;32.80;;;30.80;;
53267;SDS011;39156;51.176;6.738;2023-06-14T04:49:54;33.50;;;31.42;;
53267;SDS011;39156;51.176;6.738;2023-06-14T04:52:21;33.40;;;31.40;;
53267;SDS011;39156;51.176;6.738;2023-06-14T04:54:48;32.30;;;30.40;;
53267;SDS011;39156;51.176;6.738;2023-06-14T04:57:13;32.47;;;30.67;;
53267;SDS011;39156;51.176;6.738;2023-06-14T04:59:42;33.70;;;31.08;;
53267;SDS011;39156;51.176;6.738;2023-06-14T05:02:09;33.08;;;31.10;;
53267;SDS011;39156;51.176;6.738;2023-06-14T05:04:36;32.35;;;30.25;;
53267;SDS011;39156;51.176;6.738;2023-06-14T05:07:06;32.97;;;30.98;;
53267;SDS011;39156;51.176;6.738;2023-06-14T05:09:33;32.60;;;30.70;;
53267;SDS011;39156;51.176;6.738;2023-06-14T05:11:58;31.67;;;29.67;;
53267;SDS011;39156;51.176;6.738;2023-06-14T05:14:25;32.85;;;30.85;;
53267;SDS011;39156;51.176;6.738;2023-06-14T05:16:51;31.27;;;29.38;;
53267;SDS011;39156;51.176;6.738;2023-06-14T05:19:18;30.80;;;28.90;;
53267;SDS011;39156;51.176;6.738;2023-06-14T05:21:45;33.95;;;31.65;;
53267;SDS011;39156;51.176;6.738;2023-06-14T05:24:12;32.35;;;30.35;;
53267;SDS011;39156;51.176;6.738;2023-06-14T05:26:42;32.60;;;30.38;;
53267;SDS011;39156;51.176;6.738;2023-06-14T05:31:34;30.83;;;29.02;;
53267;SDS011;39156;51.176;6.738;2023-06-14T05:36:26;30.73;;;28.92;;
53267;SDS011;39156;51.176;6.738;2023-06-14T05:38:52;31.70;;;29.55;;
53267;SDS011;39156;51.176;6.738;2023-06-14T05:41:23;31.05;;;29.05;;
53267;SDS011;39156;51.176;6.738;2023-06-14T05:43:53;29.55;;;27.58;;
53267;SDS011;39156;51.176;6.738;2023-06-14T05:46:19;29.70;;;27.88;;
53267;SDS011;39156;51.176;6.738;2023-06-14T05:48:49;30.33;;;28.63;;
53267;SDS011;39156;51.176;6.738;2023-06-14T05:51:16;29.40;;;27.60;;
53267;SDS011;39156;51.176;6.738;2023-06-14T05:53:44;30.65;;;28.73;;
53267;SDS011;39156;51.176;6.738;2023-06-14T05:56:14;30.40;;;28.40;;
53267;SDS011;39156;51.176;6.738;2023-06-14T05:58:40;29.58;;;27.77;;
53267;SDS011;39156;51.176;6.738;2023-06-14T06:01:06;30.52;;;27.85;;
53267;SDS011;39156;51.176;6.738;2023-06-14T06:03:32;29.60;;;27.67;;
53267;SDS011;39156;51.176;6.738;2023-06-14T06:05:58;29.00;;;27.20;;
53267;SDS011;39156;51.176;6.738;2023-06-14T06:08:24;29.90;;;27.58;;
53267;SDS011;39156;51.176;6.738;2023-06-14T06:10:51;29.10;;;27.40;;
53267;SDS011;39156;51.176;6.738;2023-06-14T06:13:16;28.58;;;26.60;;
53267;SDS011;39156;51.176;6.738;2023-06-14T06:15:42;29.05;;;27.15;;
53267;SDS011;39156;51.176;6.738;2023-06-14T06:18:08;28.23;;;26.52;;
53267;SDS011;39156;51.176;6.738;2023-06-14T06:20:34;28.02;;;26.30;;
53267;SDS011;39156;51.176;6.738;2023-06-14T06:23:01;28.65;;;26.70;;
53267;SDS011;39156;51.176;6.738;2023-06-14T06:25:27;27.95;;;26.27;;
53267;SDS011;39156;51.176;6.738;2023-06-14T06:27:53;28.25;;;26.50;;
53267;SDS011;39156;51.176;6.738;2023-06-14T06:30:21;27.67;;;25.75;;
53267;SDS011;39156;51.176;6.738;2023-06-14T06:32:47;27.55;;;26.05;;
53267;SDS011;39156;51.176;6.738;2023-06-14T06:35:13;28.48;;;26.55;;
53267;SDS011;39156;51.176;6.738;2023-06-14T06:37:39;27.70;;;25.90;;
53267;SDS011;39156;51.176;6.738;2023-06-14T06:40:07;28.00;;;26.40;;
53267;SDS011;39156;51.176;6.738;2023-06-14T06:42:33;27.27;;;25.77;;
53267;SDS011;39156;51.176;6.738;2023-06-14T06:45:00;27.88;;;26.17;;
53267;SDS011;39156;51.176;6.738;2023-06-14T06:47:26;27.73;;;26.05;;
53267;SDS011;39156;51.176;6.738;2023-06-14T06:49:51;27.05;;;25.27;;
53267;SDS011;39156;51.176;6.738;2023-06-14T06:52:17;27.02;;;25.52;;
53267;SDS011;39156;51.176;6.738;2023-06-14T06:54:43;26.55;;;24.52;;
53267;SDS011;39156;51.176;6.738;2023-06-14T06:57:09;27.17;;;25.55;;
53267;SDS011;39156;51.176;6.738;2023-06-14T06:59:36;27.02;;;25.52;;
53267;SDS011;39156;51.176;6.738;2023-06-14T07:02:02;26.33;;;24.65;;
53267;SDS011;39156;51.176;6.738;2023-06-14T07:04:28;26.80;;;24.95;;
53267;SDS011;39156;51.176;6.738;2023-06-14T07:06:54;26.63;;;25.23;;
53267;SDS011;39156;51.176;6.738;2023-06-14T07:09:20;26.48;;;24.90;;
53267;SDS011;39156;51.176;6.738;2023-06-14T07:11:46;26.13;;;24.52;;
53267;SDS011;39156;51.176;6.738;2023-06-14T07:14:12;26.40;;;24.80;;
53267;SDS011;39156;51.176;6.738;2023-06-14T07:16:38;27.90;;;25.58;;
53267;SDS011;39156;51.176;6.738;2023-06-14T07:19:06;25.63;;;24.13;;
53267;SDS011;39156;51.176;6.738;2023-06-14T07:21:31;26.17;;;24.77;;
53267;SDS011;39156;51.176;6.738;2023-06-14T07:23:57;26.48;;;24.90;;
53267;SDS011;39156;51.176;6.738;2023-06-14T07:26:23;25.90;;;24.40;;
53267;SDS011;39156;51.176;6.738;2023-06-14T07:28:48;26.55;;;24.77;;
53267;SDS011;39156;51.176;6.738;2023-06-14T07:31:15;25.50;;;24.08;;
53267;SDS011;39156;51.176;6.738;2023-06-14T07:33:41;26.33;;;24.92;;
53267;SDS011;39156;51.176;6.738;2023-06-14T07:36:07;25.45;;;24.05;;
53267;SDS011;39156;51.176;6.738;2023-06-14T07:38:33;25.65;;;24.25;;
53267;SDS011;39156;51.176;6.738;2023-06-14T07:40:59;26.33;;;24.65;;
53267;SDS011;39156;51.176;6.738;2023-06-14T07:43:25;25.77;;;24.27;;
53267;SDS011;39156;51.176;6.738;2023-06-14T07:45:51;26.10;;;24.70;;
53267;SDS011;39156;51.176;6.738;2023-06-14T07:48:17;26.75;;;25.15;;
53267;SDS011;39156;51.176;6.738;2023-06-14T07:50:43;25.67;;;24.27;;
53267;SDS011;39156;51.176;6.738;2023-06-14T07:53:09;26.48;;;24.77;;
53267;SDS011;39156;51.176;6.738;2023-06-14T07:55:35;26.30;;;24.63;;
53267;SDS011;39156;51.176;6.738;2023-06-14T07:58:02;26.02;;;24.42;;
53267;SDS011;39156;51.176;6.738;2023-06-14T08:00:28;26.55;;;25.00;;
53267;SDS011;39156;51.176;6.738;2023-06-14T08:02:54;25.48;;;24.17;;
53267;SDS011;39156;51.176;6.738;2023-06-14T08:05:24;25.65;;;24.35;;
53267;SDS011;39156;51.176;6.738;2023-06-14T08:07:54;26.02;;;24.63;;
53267;SDS011;39156;51.176;6.738;2023-06-14T08:10:20;26.17;;;24.58;;
53267;SDS011;39156;51.176;6.738;2023-06-14T08:12:46;25.80;;;24.50;;
53267;SDS011;39156;51.176;6.738;2023-06-14T08:15:15;25.35;;;24.00;;
53267;SDS011;39156;51.176;6.738;2023-06-14T08:17:44;25.75;;;24.35;;
53267;SDS011;39156;51.176;6.738;2023-06-14T08:20:10;26.02;;;24.42;;
53267;SDS011;39156;51.176;6.738;2023-06-14T08:22:38;26.40;;;24.90;;
53267;SDS011;39156;51.176;6.738;2023-06-14T08:25:07;26.58;;;25.08;;
53267;SDS011;39156;51.176;6.738;2023-06-14T08:27:33;25.77;;;24.38;;
53267;SDS011;39156;51.176;6.738;2023-06-14T08:29:59;26.73;;;24.95;;
53267;SDS011;39156;51.176;6.738;2023-06-14T08:32:25;25.85;;;24.45;;
53267;SDS011;39156;51.176;6.738;2023-06-14T08:34:51;25.90;;;24.50;;
53267;SDS011;39156;51.176;6.738;2023-06-14T08:37:17;25.67;;;24.38;;
53267;SDS011;39156;51.176;6.738;2023-06-14T08:39:42;26.02;;;24.73;;
53267;SDS011;39156;51.176;6.738;2023-06-14T08:42:09;25.95;;;24.45;;
53267;SDS011;39156;51.176;6.738;2023-06-14T08:44:35;26.60;;;25.30;;
53267;SDS011;39156;51.176;6.738;2023-06-14T08:47:01;25.80;;;24.40;;
53267;SDS011;39156;51.176;6.738;2023-06-14T08:49:28;26.45;;;24.85;;
53267;SDS011;39156;51.176;6.738;2023-06-14T08:51:59;25.73;;;24.42;;
53267;SDS011;39156;51.176;6.738;2023-06-14T08:54:27;26.23;;;24.83;;
53267;SDS011;39156;51.176;6.738;2023-06-14T08:56:59;25.92;;;24.42;;
53267;SDS011;39156;51.176;6.738;2023-06-14T08:59:28;27.48;;;25.88;;
53267;SDS011;39156;51.176;6.738;2023-06-14T09:01:56;26.48;;;24.92;;
53267;SDS011;39156;51.176;6.738;2023-06-14T09:04:22;26.27;;;24.67;;
53267;SDS011;39156;51.176;6.738;2023-06-14T09:06:49;26.88;;;25.30;;
53267;SDS011;39156;51.176;6.738;2023-06-14T09:09:18;27.05;;;25.23;;
53267;SDS011;39156;51.176;6.738;2023-06-14T09:11:45;26.75;;;25.35;;
53267;SDS011;39156;51.176;6.738;2023-06-14T09:14:12;26.98;;;24.95;;
53267;SDS011;39156;51.176;6.738;2023-06-14T09:16:38;26.55;;;25.08;;
53267;SDS011;39156;51.176;6.738;2023-06-14T09:19:04;26.23;;;24.73;;
53267;SDS011;39156;51.176;6.738;2023-06-14T09:21:31;26.38;;;24.88;;
53267;SDS011;39156;51.176;6.738;2023-06-14T09:24:01;25.95;;;24.20;;
53267;SDS011;39156;51.176;6.738;2023-06-14T09:26:27;26.27;;;24.75;;
53267;SDS011;39156;51.176;6.738;2023-06-14T09:28:53;26.95;;;25.48;;
53267;SDS011;39156;51.176;6.738;2023-06-14T09:31:20;26.15;;;24.65;;
53267;SDS011;39156;51.176;6.738;2023-06-14T09:33:50;26.30;;;24.80;;
53267;SDS011;39156;51.176;6.738;2023-06-14T09:36:23;27.15;;;25.48;;
53267;SDS011;39156;51.176;6.738;2023-06-14T09:38:56;27.13;;;25.35;;
53267;SDS011;39156;51.176;6.738;2023-06-14T09:41:32;27.30;;;25.80;;
53267;SDS011;39156;51.176;6.738;2023-06-14T09:44:00;26.50;;;25.17;;
53267;SDS011;39156;51.176;6.738;2023-06-14T09:46:27;26.85;;;25.42;;
53267;SDS011;39156;51.176;6.738;2023-06-14T09:48:55;26.58;;;25.17;;
53267;SDS011;39156;51.176;6.738;2023-06-14T09:51:24;27.35;;;25.75;;
53267;SDS011;39156;51.176;6.738;2023-06-14T09:53:51;27.63;;;26.13;;
53267;SDS011;39156;51.176;6.738;2023-06-14T09:56:21;27.85;;;26.35;;
53267;SDS011;39156;51.176;6.738;2023-06-14T09:58:54;28.80;;;27.13;;
53267;SDS011;39156;51.176;6.738;2023-06-14T10:01:25;28.33;;;26.70;;
53267;SDS011;39156;51.176;6.738;2023-06-14T10:04:05;29.42;;;27.55;;
53267;SDS011;39156;51.176;6.738;2023-06-14T10:06:32;28.35;;;26.85;;
53267;SDS011;39156;51.176;6.738;2023-06-14T10:09:03;28.15;;;26.65;;
53267;SDS011;39156;51.176;6.738;2023-06-14T10:11:30;29.65;;;28.13;;
53267;SDS011;39156;51.176;6.738;2023-06-14T10:13:56;30.85;;;29.17;;
53267;SDS011;39156;51.176;6.738;2023-06-14T10:16:24;30.00;;;28.30;;
53267;SDS011;39156;51.176;6.738;2023-06-14T10:21:45;30.92;;;28.90;;
53267;SDS011;39156;51.176;6.738;2023-06-14T10:24:26;31.52;;;29.83;;
53267;SDS011;39156;51.176;6.738;2023-06-14T10:27:07;30.38;;;28.65;;
53267;SDS011;39156;51.176;6.738;2023-06-14T10:29:35;29.50;;;27.70;;
53267;SDS011;39156;51.176;6.738;2023-06-14T10:32:27;29.60;;;27.80;;
53267;SDS011;39156;51.176;6.738;2023-06-14T10:34:57;31.52;;;29.73;;
53267;SDS011;39156;51.176;6.738;2023-06-14T10:37:31;32.97;;;30.75;;
53267;SDS011;39156;51.176;6.738;2023-06-14T10:39:57;31.13;;;29.50;;
53267;SDS011;39156;51.176;6.738;2023-06-14T10:42:23;29.50;;;27.55;;
53267;SDS011;39156;51.176;6.738;2023-06-14T10:44:57;28.48;;;26.88;;
53267;SDS011;39156;51.176;6.738;2023-06-14T10:49:56;29.58;;;27.90;;
53267;SDS011;39156;51.176;6.738;2023-06-14T10:52:32;30.48;;;28.88;;
53267;SDS011;39156;51.176;6.738;2023-06-14T10:57:40;29.50;;;28.00;;
53267;SDS011;39156;51.176;6.738;2023-06-14T11:00:11;32.80;;;31.00;;
53267;SDS011;39156;51.176;6.738;2023-06-14T11:02:58;30.48;;;28.65;;
53267;SDS011;39156;51.176;6.738;2023-06-14T11:05:44;30.85;;;29.25;;
53267;SDS011;39156;51.176;6.738;2023-06-14T11:11:32;30.30;;;28.70;;
53267;SDS011;39156;51.176;6.738;2023-06-14T11:14:00;29.70;;;28.15;;
53267;SDS011;39156;51.176;6.738;2023-06-14T11:16:27;30.05;;;28.15;;
53267;SDS011;39156;51.176;6.738;2023-06-14T11:18:53;29.63;;;27.95;;
53267;SDS011;39156;51.176;6.738;2023-06-14T11:21:20;31.35;;;29.67;;
53267;SDS011;39156;51.176;6.738;2023-06-14T11:23:49;31.30;;;29.50;;
53267;SDS011;39156;51.176;6.738;2023-06-14T11:26:27;30.98;;;29.38;;
53267;SDS011;39156;51.176;6.738;2023-06-14T11:28:55;30.35;;;28.75;;
53267;SDS011;39156;51.176;6.738;2023-06-14T11:31:23;31.90;;;30.27;;
53267;SDS011;39156;51.176;6.738;2023-06-14T11:33:50;30.73;;;29.13;;
53267;SDS011;39156;51.176;6.738;2023-06-14T11:36:18;30.52;;;28.92;;
53267;SDS011;39156;51.176;6.738;2023-06-14T11:38:44;30.08;;;28.33;;
53267;SDS011;39156;51.176;6.738;2023-06-14T11:41:10;30.20;;;28.50;;
53267;SDS011;39156;51.176;6.738;2023-06-14T11:43:35;29.58;;;27.98;;
53267;SDS011;39156;51.176;6.738;2023-06-14T11:46:02;31.10;;;29.15;;
53267;SDS011;39156;51.176;6.738;2023-06-14T11:48:41;29.90;;;28.20;;
53267;SDS011;39156;51.176;6.738;2023-06-14T11:51:07;31.13;;;29.45;;
53267;SDS011;39156;51.176;6.738;2023-06-14T11:53:33;30.58;;;28.98;;
53267;SDS011;39156;51.176;6.738;2023-06-14T11:55:59;30.52;;;28.63;;
53267;SDS011;39156;51.176;6.738;2023-06-14T11:58:26;30.95;;;29.33;;
53267;SDS011;39156;51.176;6.738;2023-06-14T12:00:53;31.42;;;29.73;;
53267;SDS011;39156;51.176;6.738;2023-06-14T12:03:23;31.42;;;29.63;;
53267;SDS011;39156;51.176;6.738;2023-06-14T12:05:50;31.35;;;29.55;;
53267;SDS011;39156;51.176;6.738;2023-06-14T12:08:36;29.45;;;27.85;;
53267;SDS011;39156;51.176;6.738;2023-06-14T12:11:14;33.60;;;31.63;;
53267;SDS011;39156;51.176;6.738;2023-06-14T12:13:41;31.15;;;29.17;;
53267;SDS011;39156;51.176;6.738;2023-06-14T12:18:35;32.63;;;30.70;;
53267;SDS011;39156;51.176;6.738;2023-06-14T12:21:03;32.03;;;30.00;;
53267;SDS011;39156;51.176;6.738;2023-06-14T12:23:47;30.85;;;29.15;;
53267;SDS011;39156;51.176;6.738;2023-06-14T12:26:15;29.27;;;27.65;;
53267;SDS011;39156;51.176;6.738;2023-06-14T12:28:44;30.85;;;29.08;;
53267;SDS011;39156;51.176;6.738;2023-06-14T12:31:11;30.90;;;28.73;;
53267;SDS011;39156;51.176;6.738;2023-06-14T12:33:39;32.45;;;30.55;;
53267;SDS011;39156;51.176;6.738;2023-06-14T12:36:06;31.20;;;29.42;;
53267;SDS011;39156;51.176;6.738;2023-06-14T12:38:33;31.85;;;29.90;;
53267;SDS011;39156;51.176;6.738;2023-06-14T12:41:00;31.77;;;30.17;;
53267;SDS011;39156;51.176;6.738;2023-06-14T12:43:26;29.77;;;28.17;;
53267;SDS011;39156;51.176;6.738;2023-06-14T12:45:52;30.08;;;28.38;;
53267;SDS011;39156;51.176;6.738;2023-06-14T12:48:18;31.17;;;29.27;;
53267;SDS011;39156;51.176;6.738;2023-06-14T12:50:45;29.63;;;28.02;;
53267;SDS011;39156;51.176;6.738;2023-06-14T12:53:11;28.98;;;27.30;;
53267;SDS011;39156;51.176;6.738;2023-06-14T12:55:37;30.42;;;28.88;;
53267;SDS011;39156;51.176;6.738;2023-06-14T12:58:02;28.95;;;27.45;;
53267;SDS011;39156;51.176;6.738;2023-06-14T13:00:28;31.05;;;29.45;;
53267;SDS011;39156;51.176;6.738;2023-06-14T13:02:57;32.13;;;30.13;;
53267;SDS011;39156;51.176;6.738;2023-06-14T13:05:23;30.50;;;28.80;;
53267;SDS011;39156;51.176;6.738;2023-06-14T13:07:49;29.42;;;27.83;;
53267;SDS011;39156;51.176;6.738;2023-06-14T13:12:41;32.72;;;30.85;;
53267;SDS011;39156;51.176;6.738;2023-06-14T13:15:07;29.83;;;28.23;;
53267;SDS011;39156;51.176;6.738;2023-06-14T13:17:33;30.67;;;28.77;;
53267;SDS011;39156;51.176;6.738;2023-06-14T13:20:04;31.17;;;29.48;;
53267;SDS011;39156;51.176;6.738;2023-06-14T13:22:32;31.20;;;29.60;;
53267;SDS011;39156;51.176;6.738;2023-06-14T13:24:58;30.27;;;28.45;;
53267;SDS011;39156;51.176;6.738;2023-06-14T13:27:25;31.02;;;29.10;;
53267;SDS011;39156;51.176;6.738;2023-06-14T13:29:52;29.45;;;27.77;;
53267;SDS011;39156;51.176;6.738;2023-06-14T13:32:20;29.80;;;28.00;;
53267;SDS011;39156;51.176;6.738;2023-06-14T13:34:47;30.20;;;28.40;;
53267;SDS011;39156;51.176;6.738;2023-06-14T13:37:13;31.40;;;29.73;;
53267;SDS011;39156;51.176;6.738;2023-06-14T13:39:39;29.80;;;28.20;;
53267;SDS011;39156;51.176;6.738;2023-06-14T13:42:05;33.35;;;31.55;;
53267;SDS011;39156;51.176;6.738;2023-06-14T13:46:56;30.55;;;28.85;;
53267;SDS011;39156;51.176;6.738;2023-06-14T13:49:22;30.90;;;29.23;;
53267;SDS011;39156;51.176;6.738;2023-06-14T13:51:48;32.03;;;30.20;;
53267;SDS011;39156;51.176;6.738;2023-06-14T13:54:14;31.73;;;29.85;;
53267;SDS011;39156;51.176;6.738;2023-06-14T13:56:40;30.30;;;28.70;;
53267;SDS011;39156;51.176;6.738;2023-06-14T13:59:06;31.17;;;29.38;;
53267;SDS011;39156;51.176;6.738;2023-06-14T14:01:32;30.77;;;29.10;;
53267;SDS011;39156;51.176;6.738;2023-06-14T14:03:58;30.67;;;28.88;;
53267;SDS011;39156;51.176;6.738;2023-06-14T14:06:25;31.40;;;29.63;;
53267;SDS011;39156;51.176;6.738;2023-06-14T14:08:51;30.73;;;29.02;;
53267;SDS011;39156;51.176;6.738;2023-06-14T14:11:17;31.58;;;29.88;;
53267;SDS011;39156;51.176;6.738;2023-06-14T14:13:45;30.23;;;28.63;;
53267;SDS011;39156;51.176;6.738;2023-06-14T14:16:12;31.00;;;29.35;;
53267;SDS011;39156;51.176;6.738;2023-06-14T14:18:38;30.45;;;28.75;;
53267;SDS011;39156;51.176;6.738;2023-06-14T14:21:04;29.60;;;27.35;;
53267;SDS011;39156;51.176;6.738;2023-06-14T14:23:29;31.02;;;29.23;;
53267;SDS011;39156;51.176;6.738;2023-06-14T14:25:55;31.38;;;29.58;;
53267;SDS011;39156;51.176;6.738;2023-06-14T14:28:21;30.40;;;28.60;;
53267;SDS011;39156;51.176;6.738;2023-06-14T14:30:47;29.90;;;28.30;;
53267;SDS011;39156;51.176;6.738;2023-06-14T14:33:13;30.10;;;28.02;;
53267;SDS011;39156;51.176;6.738;2023-06-14T14:35:45;29.95;;;28.33;;
53267;SDS011;39156;51.176;6.738;2023-06-14T14:38:11;29.20;;;27.70;;
53267;SDS011;39156;51.176;6.738;2023-06-14T14:40:41;30.25;;;28.65;;
53267;SDS011;39156;51.176;6.738;2023-06-14T14:43:08;31.02;;;29.35;;
53267;SDS011;39156;51.176;6.738;2023-06-14T14:45:34;30.13;;;28.52;;
53267;SDS011;39156;51.176;6.738;2023-06-14T14:48:01;30.80;;;29.20;;
53267;SDS011;39156;51.176;6.738;2023-06-14T14:50:27;30.38;;;28.77;;
53267;SDS011;39156;51.176;6.738;2023-06-14T14:52:53;31.85;;;30.08;;
53267;SDS011;39156;51.176;6.738;2023-06-14T14:55:19;29.83;;;28.23;;
53267;SDS011;39156;51.176;6.738;2023-06-14T14:57:45;32.92;;;31.20;;
53267;SDS011;39156;51.176;6.738;2023-06-14T15:00:12;32.03;;;30.13;;
53267;SDS011;39156;51.176;6.738;2023-06-14T15:05:05;32.25;;;30.00;;
53267;SDS011;39156;51.176;6.738;2023-06-14T15:07:31;31.40;;;29.60;;